sensor_id;sensor_type;location;lat;lon;timestamp;temperature;humidity
66594;DHT22;53450;42.584;23.366;2023-02-28T00:00:37;5.66;87.72
66594;DHT22;53450;42.584;23.366;2023-02-28T00:03:03;5.49;87.83
66594;DHT22;53450;42.584;23.366;2023-02-28T00:05:28;5.29;88.38
66594;DHT22;53450;42.584;23.366;2023-02-28T00:08:19;5.11;88.84
66594;DHT22;53450;42.584;23.366;2023-02-28T00:10:44;5.11;89.18
66594;DHT22;53450;42.584;23.366;2023-02-28T00:13:10;5.22;89.25
66594;DHT22;53450;42.584;23.366;2023-02-28T00:15:36;5.29;89.19
66594;DHT22;53450;42.584;23.366;2023-02-28T00:18:02;5.36;89.03
66594;DHT22;53450;42.584;23.366;2023-02-28T00:20:28;5.54;88.54
66594;DHT22;53450;42.584;23.366;2023-02-28T00:22:55;5.59;87.87
66594;DHT22;53450;42.584;23.366;2023-02-28T00:25:23;5.57;87.59
66594;DHT22;53450;42.584;23.366;2023-02-28T00:27:49;5.53;87.50
66594;DHT22;53450;42.584;23.366;2023-02-28T00:30:18;5.59;87.80
66594;DHT22;53450;42.584;23.366;2023-02-28T00:32:44;5.56;87.89
66594;DHT22;53450;42.584;23.366;2023-02-28T00:35:10;5.54;88.04
66594;DHT22;53450;42.584;23.366;2023-02-28T00:37:36;5.57;88.00
66594;DHT22;53450;42.584;23.366;2023-02-28T00:40:05;5.47;87.97
66594;DHT22;53450;42.584;23.366;2023-02-28T00:42:32;5.47;88.02
66594;DHT22;53450;42.584;23.366;2023-02-28T00:44:58;5.71;87.75
66594;DHT22;53450;42.584;23.366;2023-02-28T00:47:23;5.69;87.21
66594;DHT22;53450;42.584;23.366;2023-02-28T00:49:49;5.66;87.33
66594;DHT22;53450;42.584;23.366;2023-02-28T00:52:15;5.42;87.59
66594;DHT22;53450;42.584;23.366;2023-02-28T00:54:40;5.49;87.79
66594;DHT22;53450;42.584;23.366;2023-02-28T00:57:06;5.52;87.59
66594;DHT22;53450;42.584;23.366;2023-02-28T00:59:32;5.49;87.69
66594;DHT22;53450;42.584;23.366;2023-02-28T01:01:58;5.32;87.95
66594;DHT22;53450;42.584;23.366;2023-02-28T01:04:24;5.04;88.31
66594;DHT22;53450;42.584;23.366;2023-02-28T01:06:50;4.94;88.71
66594;DHT22;53450;42.584;23.366;2023-02-28T01:09:16;4.81;88.98
66594;DHT22;53450;42.584;23.366;2023-02-28T01:11:42;4.73;89.28
66594;DHT22;53450;42.584;23.366;2023-02-28T01:14:13;4.96;89.39
66594;DHT22;53450;42.584;23.366;2023-02-28T01:16:39;4.94;89.27
66594;DHT22;53450;42.584;23.366;2023-02-28T01:19:30;5.02;89.36
66594;DHT22;53450;42.584;23.366;2023-02-28T01:22:21;4.99;88.89
66594;DHT22;53450;42.584;23.366;2023-02-28T01:24:46;4.88;88.95
66594;DHT22;53450;42.584;23.366;2023-02-28T01:27:13;4.98;88.83
66594;DHT22;53450;42.584;23.366;2023-02-28T01:29:38;4.89;88.87
66594;DHT22;53450;42.584;23.366;2023-02-28T01:32:04;4.84;89.05
66594;DHT22;53450;42.584;23.366;2023-02-28T01:34:30;5.02;88.86
66594;DHT22;53450;42.584;23.366;2023-02-28T01:36:56;4.96;88.58
66594;DHT22;53450;42.584;23.366;2023-02-28T01:39:25;4.81;88.68
66594;DHT22;53450;42.584;23.366;2023-02-28T01:41:50;4.87;88.79
66594;DHT22;53450;42.584;23.366;2023-02-28T01:47:21;4.89;87.99
66594;DHT22;53450;42.584;23.366;2023-02-28T01:49:49;4.89;88.25
66594;DHT22;53450;42.584;23.366;2023-02-28T01:52:17;4.78;88.45
66594;DHT22;53450;42.584;23.366;2023-02-28T01:54:52;4.87;87.86
66594;DHT22;53450;42.584;23.366;2023-02-28T01:57:23;4.81;87.87
66594;DHT22;53450;42.584;23.366;2023-02-28T02:00:08;4.87;87.78
66594;DHT22;53450;42.584;23.366;2023-02-28T02:02:47;4.83;87.78
66594;DHT22;53450;42.584;23.366;2023-02-28T02:05:23;4.87;87.50
66594;DHT22;53450;42.584;23.366;2023-02-28T02:08:36;4.73;87.67
66594;DHT22;53450;42.584;23.366;2023-02-28T02:11:02;4.70;87.96
66594;DHT22;53450;42.584;23.366;2023-02-28T02:14:03;4.74;88.01
66594;DHT22;53450;42.584;23.366;2023-02-28T02:38:25;4.42;86.45
66594;DHT22;53450;42.584;23.366;2023-02-28T02:41:18;4.32;86.27
66594;DHT22;53450;42.584;23.366;2023-02-28T02:43:46;4.34;86.70
66594;DHT22;53450;42.584;23.366;2023-02-28T02:46:20;4.36;86.28
66594;DHT22;53450;42.584;23.366;2023-02-28T02:48:47;4.25;85.94
66594;DHT22;53450;42.584;23.366;2023-02-28T02:51:16;4.09;86.19
66594;DHT22;53450;42.584;23.366;2023-02-28T02:53:48;4.12;86.58
66594;DHT22;53450;42.584;23.366;2023-02-28T02:56:17;4.06;86.24
66594;DHT22;53450;42.584;23.366;2023-02-28T02:59:12;3.94;86.39
66594;DHT22;53450;42.584;23.366;2023-02-28T03:02:06;3.57;87.33
66594;DHT22;53450;42.584;23.366;2023-02-28T03:04:42;3.40;88.03
66594;DHT22;53450;42.584;23.366;2023-02-28T03:07:08;3.41;88.40
66594;DHT22;53450;42.584;23.366;2023-02-28T03:09:34;3.55;88.52
66594;DHT22;53450;42.584;23.366;2023-02-28T03:12:09;3.82;88.00
66594;DHT22;53450;42.584;23.366;2023-02-28T03:14:56;3.86;87.58
66594;DHT22;53450;42.584;23.366;2023-02-28T03:17:41;3.82;87.72
66594;DHT22;53450;42.584;23.366;2023-02-28T03:20:26;3.81;87.84
66594;DHT22;53450;42.584;23.366;2023-02-28T03:29:08;3.82;87.80
66594;DHT22;53450;42.584;23.366;2023-02-28T03:31:50;3.81;88.15
66594;DHT22;53450;42.584;23.366;2023-02-28T03:34:23;3.79;88.34
66594;DHT22;53450;42.584;23.366;2023-02-28T03:36:53;3.88;88.38
66594;DHT22;53450;42.584;23.366;2023-02-28T03:39:27;3.81;88.32
66594;DHT22;53450;42.584;23.366;2023-02-28T03:42:22;3.68;88.40
66594;DHT22;53450;42.584;23.366;2023-02-28T03:44:53;3.71;88.70
66594;DHT22;53450;42.584;23.366;2023-02-28T03:53:32;3.95;88.58
66594;DHT22;53450;42.584;23.366;2023-02-28T03:56:08;4.01;87.89
66594;DHT22;53450;42.584;23.366;2023-02-28T04:01:32;4.06;88.47
66594;DHT22;53450;42.584;23.366;2023-02-28T04:04:26;4.29;88.65
66594;DHT22;53450;42.584;23.366;2023-02-28T04:07:17;4.40;88.46
66594;DHT22;53450;42.584;23.366;2023-02-28T04:09:43;4.42;88.30
66594;DHT22;53450;42.584;23.366;2023-02-28T04:12:09;4.39;88.48
66594;DHT22;53450;42.584;23.366;2023-02-28T04:14:36;4.49;88.68
66594;DHT22;53450;42.584;23.366;2023-02-28T04:17:01;4.60;87.97
66594;DHT22;53450;42.584;23.366;2023-02-28T04:19:27;4.58;87.69
66594;DHT22;53450;42.584;23.366;2023-02-28T04:21:53;4.61;88.04
66594;DHT22;53450;42.584;23.366;2023-02-28T04:24:21;4.56;88.01
66594;DHT22;53450;42.584;23.366;2023-02-28T04:26:50;4.50;87.07
66594;DHT22;53450;42.584;23.366;2023-02-28T04:29:28;4.46;87.05
66594;DHT22;53450;42.584;23.366;2023-02-28T04:31:54;4.43;86.97
66594;DHT22;53450;42.584;23.366;2023-02-28T04:34:23;4.37;86.96
66594;DHT22;53450;42.584;23.366;2023-02-28T04:36:49;4.42;87.06
66594;DHT22;53450;42.584;23.366;2023-02-28T04:39:20;4.43;86.97
66594;DHT22;53450;42.584;23.366;2023-02-28T04:41:45;4.37;87.06
66594;DHT22;53450;42.584;23.366;2023-02-28T04:44:12;4.52;87.38
66594;DHT22;53450;42.584;23.366;2023-02-28T04:46:37;4.53;87.51
66594;DHT22;53450;42.584;23.366;2023-02-28T04:49:03;4.56;87.66
66594;DHT22;53450;42.584;23.366;2023-02-28T04:51:53;4.65;87.93
66594;DHT22;53450;42.584;23.366;2023-02-28T04:54:19;4.81;87.85
66594;DHT22;53450;42.584;23.366;2023-02-28T04:56:45;5.08;87.64
66594;DHT22;53450;42.584;23.366;2023-02-28T04:59:10;5.18;87.63
66594;DHT22;53450;42.584;23.366;2023-02-28T05:01:36;5.31;87.30
66594;DHT22;53450;42.584;23.366;2023-02-28T05:04:03;5.36;87.33
66594;DHT22;53450;42.584;23.366;2023-02-28T05:06:32;5.56;87.09
66594;DHT22;53450;42.584;23.366;2023-02-28T05:08:58;5.69;87.05
66594;DHT22;53450;42.584;23.366;2023-02-28T05:11:32;5.71;87.35
66594;DHT22;53450;42.584;23.366;2023-02-28T05:14:02;5.83;87.30
66594;DHT22;53450;42.584;23.366;2023-02-28T05:16:28;5.90;87.17
66594;DHT22;53450;42.584;23.366;2023-02-28T05:18:54;5.95;87.18
66594;DHT22;53450;42.584;23.366;2023-02-28T05:23:49;6.07;87.20
66594;DHT22;53450;42.584;23.366;2023-02-28T05:26:14;6.18;86.96
66594;DHT22;53450;42.584;23.366;2023-02-28T05:28:40;6.35;86.34
66594;DHT22;53450;42.584;23.366;2023-02-28T05:31:05;6.33;86.45
66594;DHT22;53450;42.584;23.366;2023-02-28T05:33:31;6.39;86.32
66594;DHT22;53450;42.584;23.366;2023-02-28T05:36:22;6.46;86.19
66594;DHT22;53450;42.584;23.366;2023-02-28T05:38:49;6.50;86.16
66594;DHT22;53450;42.584;23.366;2023-02-28T05:41:15;6.46;86.19
66594;DHT22;53450;42.584;23.366;2023-02-28T05:43:41;6.52;86.07
66594;DHT22;53450;42.584;23.366;2023-02-28T05:46:08;6.50;86.23
66594;DHT22;53450;42.584;23.366;2023-02-28T05:48:35;6.50;86.34
66594;DHT22;53450;42.584;23.366;2023-02-28T05:51:02;6.57;86.31
66594;DHT22;53450;42.584;23.366;2023-02-28T05:53:28;6.77;86.00
66594;DHT22;53450;42.584;23.366;2023-02-28T05:55:54;6.80;85.57
66594;DHT22;53450;42.584;23.366;2023-02-28T05:58:20;6.75;85.54
66594;DHT22;53450;42.584;23.366;2023-02-28T06:00:47;6.75;85.60
66594;DHT22;53450;42.584;23.366;2023-02-28T06:03:13;6.83;85.59
66594;DHT22;53450;42.584;23.366;2023-02-28T06:05:38;6.87;85.56
66594;DHT22;53450;42.584;23.366;2023-02-28T06:08:04;6.91;85.60
66594;DHT22;53450;42.584;23.366;2023-02-28T06:10:38;6.99;85.46
66594;DHT22;53450;42.584;23.366;2023-02-28T06:13:04;7.03;85.40
66594;DHT22;53450;42.584;23.366;2023-02-28T06:15:30;7.05;85.44
66594;DHT22;53450;42.584;23.366;2023-02-28T06:18:20;7.04;85.66
66594;DHT22;53450;42.584;23.366;2023-02-28T06:21:12;7.11;85.37
66594;DHT22;53450;42.584;23.366;2023-02-28T06:23:38;7.08;85.19
66594;DHT22;53450;42.584;23.366;2023-02-28T06:26:04;7.10;85.18
66594;DHT22;53450;42.584;23.366;2023-02-28T06:28:30;7.08;85.27
66594;DHT22;53450;42.584;23.366;2023-02-28T06:30:56;7.08;85.16
66594;DHT22;53450;42.584;23.366;2023-02-28T06:33:22;7.14;85.16
66594;DHT22;53450;42.584;23.366;2023-02-28T06:35:50;7.14;85.17
66594;DHT22;53450;42.584;23.366;2023-02-28T06:38:20;7.11;85.00
66594;DHT22;53450;42.584;23.366;2023-02-28T06:40:53;7.24;84.96
66594;DHT22;53450;42.584;23.366;2023-02-28T06:43:19;7.27;84.80
66594;DHT22;53450;42.584;23.366;2023-02-28T06:45:45;7.18;85.03
66594;DHT22;53450;42.584;23.366;2023-02-28T06:48:10;7.14;85.53
66594;DHT22;53450;42.584;23.366;2023-02-28T06:50:36;7.15;84.93
66594;DHT22;53450;42.584;23.366;2023-02-28T06:53:27;7.18;85.35
66594;DHT22;53450;42.584;23.366;2023-02-28T06:55:53;7.20;85.73
66594;DHT22;53450;42.584;23.366;2023-02-28T06:58:19;7.24;85.44
66594;DHT22;53450;42.584;23.366;2023-02-28T07:00:45;7.35;85.25
66594;DHT22;53450;42.584;23.366;2023-02-28T07:03:12;7.48;84.85
66594;DHT22;53450;42.584;23.366;2023-02-28T07:05:38;7.45;84.90
66594;DHT22;53450;42.584;23.366;2023-02-28T07:08:05;7.44;84.74
66594;DHT22;53450;42.584;23.366;2023-02-28T07:10:32;7.42;85.04
66594;DHT22;53450;42.584;23.366;2023-02-28T07:12:58;7.49;85.27
66594;DHT22;53450;42.584;23.366;2023-02-28T07:15:24;7.61;85.24
66594;DHT22;53450;42.584;23.366;2023-02-28T07:18:15;7.63;84.45
66594;DHT22;53450;42.584;23.366;2023-02-28T07:20:40;7.68;84.40
66594;DHT22;53450;42.584;23.366;2023-02-28T07:23:06;7.65;84.50
66594;DHT22;53450;42.584;23.366;2023-02-28T07:25:31;7.65;84.32
66594;DHT22;53450;42.584;23.366;2023-02-28T07:27:57;7.83;83.76
66594;DHT22;53450;42.584;23.366;2023-02-28T07:30:25;7.83;83.72
66594;DHT22;53450;42.584;23.366;2023-02-28T07:32:51;7.70;84.09
66594;DHT22;53450;42.584;23.366;2023-02-28T07:35:16;7.70;83.70
66594;DHT22;53450;42.584;23.366;2023-02-28T07:37:42;7.66;84.26
66594;DHT22;53450;42.584;23.366;2023-02-28T07:40:09;7.65;83.83
66594;DHT22;53450;42.584;23.366;2023-02-28T07:42:40;7.58;83.83
66594;DHT22;53450;42.584;23.366;2023-02-28T07:45:08;7.63;83.59
66594;DHT22;53450;42.584;23.366;2023-02-28T07:47:40;7.69;83.55
66594;DHT22;53450;42.584;23.366;2023-02-28T07:50:08;7.89;83.78
66594;DHT22;53450;42.584;23.366;2023-02-28T07:52:36;8.04;83.60
66594;DHT22;53450;42.584;23.366;2023-02-28T07:55:02;8.20;82.98
66594;DHT22;53450;42.584;23.366;2023-02-28T07:57:27;8.23;82.32
66594;DHT22;53450;42.584;23.366;2023-02-28T07:59:53;8.38;82.47
66594;DHT22;53450;42.584;23.366;2023-02-28T08:02:19;8.47;83.45
66594;DHT22;53450;42.584;23.366;2023-02-28T08:04:45;8.48;84.38
66594;DHT22;53450;42.584;23.366;2023-02-28T08:07:12;8.55;84.11
66594;DHT22;53450;42.584;23.366;2023-02-28T08:09:40;8.45;83.21
66594;DHT22;53450;42.584;23.366;2023-02-28T08:12:07;8.44;83.81
66594;DHT22;53450;42.584;23.366;2023-02-28T08:14:33;8.49;84.21
66594;DHT22;53450;42.584;23.366;2023-02-28T08:16:59;8.67;84.53
66594;DHT22;53450;42.584;23.366;2023-02-28T08:19:27;8.51;84.12
66594;DHT22;53450;42.584;23.366;2023-02-28T08:21:53;8.69;84.26
66594;DHT22;53450;42.584;23.366;2023-02-28T08:24:19;8.67;83.98
66594;DHT22;53450;42.584;23.366;2023-02-28T08:26:44;8.92;83.27
66594;DHT22;53450;42.584;23.366;2023-02-28T08:29:10;9.00;82.64
66594;DHT22;53450;42.584;23.366;2023-02-28T08:32:01;8.82;83.01
66594;DHT22;53450;42.584;23.366;2023-02-28T08:34:27;8.69;83.33
66594;DHT22;53450;42.584;23.366;2023-02-28T08:36:52;8.64;83.28
66594;DHT22;53450;42.584;23.366;2023-02-28T08:39:18;8.65;83.16
66594;DHT22;53450;42.584;23.366;2023-02-28T08:41:45;8.54;84.06
66594;DHT22;53450;42.584;23.366;2023-02-28T08:44:10;8.48;84.26
66594;DHT22;53450;42.584;23.366;2023-02-28T08:46:36;8.28;84.21
66594;DHT22;53450;42.584;23.366;2023-02-28T08:49:03;8.27;84.55
66594;DHT22;53450;42.584;23.366;2023-02-28T08:51:28;8.38;84.38
66594;DHT22;53450;42.584;23.366;2023-02-28T08:53:59;8.41;83.84
66594;DHT22;53450;42.584;23.366;2023-02-28T08:56:26;8.34;83.99
66594;DHT22;53450;42.584;23.366;2023-02-28T08:58:55;8.36;83.58
66594;DHT22;53450;42.584;23.366;2023-02-28T09:01:26;9.02;82.41
66594;DHT22;53450;42.584;23.366;2023-02-28T09:03:55;8.93;80.92
66594;DHT22;53450;42.584;23.366;2023-02-28T09:06:24;8.71;81.91
66594;DHT22;53450;42.584;23.366;2023-02-28T09:08:50;8.89;82.34
66594;DHT22;53450;42.584;23.366;2023-02-28T09:11:16;8.98;81.49
66594;DHT22;53450;42.584;23.366;2023-02-28T09:13:42;8.92;81.27
66594;DHT22;53450;42.584;23.366;2023-02-28T09:16:11;9.02;82.20
66594;DHT22;53450;42.584;23.366;2023-02-28T09:18:38;9.02;81.72
66594;DHT22;53450;42.584;23.366;2023-02-28T09:21:08;8.99;81.70
66594;DHT22;53450;42.584;23.366;2023-02-28T09:23:35;9.03;81.59
66594;DHT22;53450;42.584;23.366;2023-02-28T09:26:00;9.19;81.31
66594;DHT22;53450;42.584;23.366;2023-02-28T09:28:26;8.78;80.83
66594;DHT22;53450;42.584;23.366;2023-02-28T09:30:53;8.58;81.65
66594;DHT22;53450;42.584;23.366;2023-02-28T09:33:22;8.65;82.38
66594;DHT22;53450;42.584;23.366;2023-02-28T09:35:49;8.57;81.72
66594;DHT22;53450;42.584;23.366;2023-02-28T09:38:15;8.85;82.13
66594;DHT22;53450;42.584;23.366;2023-02-28T09:40:53;8.82;81.88
66594;DHT22;53450;42.584;23.366;2023-02-28T09:43:22;8.82;81.75
66594;DHT22;53450;42.584;23.366;2023-02-28T09:45:52;8.99;82.45
66594;DHT22;53450;42.584;23.366;2023-02-28T09:48:28;9.09;81.32
66594;DHT22;53450;42.584;23.366;2023-02-28T09:51:11;9.07;80.96
66594;DHT22;53450;42.584;23.366;2023-02-28T09:53:38;9.20;81.19
66594;DHT22;53450;42.584;23.366;2023-02-28T09:56:09;9.03;80.95
66594;DHT22;53450;42.584;23.366;2023-02-28T09:58:55;9.02;80.87
66594;DHT22;53450;42.584;23.366;2023-02-28T10:01:28;9.03;81.97
66594;DHT22;53450;42.584;23.366;2023-02-28T10:04:00;8.79;81.38
66594;DHT22;53450;42.584;23.366;2023-02-28T10:06:29;8.78;82.15
66594;DHT22;53450;42.584;23.366;2023-02-28T10:09:04;8.82;81.91
66594;DHT22;53450;42.584;23.366;2023-02-28T10:11:33;8.76;81.69
66594;DHT22;53450;42.584;23.366;2023-02-28T10:14:04;8.72;81.61
66594;DHT22;53450;42.584;23.366;2023-02-28T10:16:35;8.89;82.09
66594;DHT22;53450;42.584;23.366;2023-02-28T10:27:21;9.09;81.16
66594;DHT22;53450;42.584;23.366;2023-02-28T10:29:55;9.36;81.07
66594;DHT22;53450;42.584;23.366;2023-02-28T10:32:31;9.73;80.38
66594;DHT22;53450;42.584;23.366;2023-02-28T10:35:10;9.88;79.70
66594;DHT22;53450;42.584;23.366;2023-02-28T10:37:47;9.71;80.18
66594;DHT22;53450;42.584;23.366;2023-02-28T10:45:30;10.08;78.01
66594;DHT22;53450;42.584;23.366;2023-02-28T10:53:28;10.15;77.90
66594;DHT22;53450;42.584;23.366;2023-02-28T10:56:24;10.01;78.09
66594;DHT22;53450;42.584;23.366;2023-02-28T11:01:51;9.67;78.98
66594;DHT22;53450;42.584;23.366;2023-02-28T11:04:19;9.74;79.02
66594;DHT22;53450;42.584;23.366;2023-02-28T11:06:47;9.88;79.56
66594;DHT22;53450;42.584;23.366;2023-02-28T11:09:27;9.87;78.13
66594;DHT22;53450;42.584;23.366;2023-02-28T11:11:54;10.02;78.97
66594;DHT22;53450;42.584;23.366;2023-02-28T11:14:23;10.15;78.39
66594;DHT22;53450;42.584;23.366;2023-02-28T11:16:50;10.30;77.71
66594;DHT22;53450;42.584;23.366;2023-02-28T11:19:39;10.39;76.39
66594;DHT22;53450;42.584;23.366;2023-02-28T11:22:06;10.13;77.32
66594;DHT22;53450;42.584;23.366;2023-02-28T11:24:36;10.03;77.61
66594;DHT22;53450;42.584;23.366;2023-02-28T11:27:03;9.89;77.99
66594;DHT22;53450;42.584;23.366;2023-02-28T11:29:31;10.08;78.18
66594;DHT22;53450;42.584;23.366;2023-02-28T11:32:19;10.15;76.90
66594;DHT22;53450;42.584;23.366;2023-02-28T11:34:47;10.22;77.58
66594;DHT22;53450;42.584;23.366;2023-02-28T11:37:26;10.10;77.78
66594;DHT22;53450;42.584;23.366;2023-02-28T11:39:52;9.87;77.48
66594;DHT22;53450;42.584;23.366;2023-02-28T11:47:48;9.92;76.98
66594;DHT22;53450;42.584;23.366;2023-02-28T11:53:17;10.23;75.77
66594;DHT22;53450;42.584;23.366;2023-02-28T11:56:10;10.40;74.72
66594;DHT22;53450;42.584;23.366;2023-02-28T11:58:59;10.47;74.53
66594;DHT22;53450;42.584;23.366;2023-02-28T12:08:20;10.22;75.14
66594;DHT22;53450;42.584;23.366;2023-02-28T12:14:18;9.91;75.79
66594;DHT22;53450;42.584;23.366;2023-02-28T12:28:49;9.74;78.51
66594;DHT22;53450;42.584;23.366;2023-02-28T12:31:41;9.55;79.04
66594;DHT22;53450;42.584;23.366;2023-02-28T12:34:16;9.88;78.61
66594;DHT22;53450;42.584;23.366;2023-02-28T12:36:44;10.02;77.78
66594;DHT22;53450;42.584;23.366;2023-02-28T12:39:16;10.02;77.73
66594;DHT22;53450;42.584;23.366;2023-02-28T12:41:46;9.64;77.82
66594;DHT22;53450;42.584;23.366;2023-02-28T12:44:17;9.65;79.03
66594;DHT22;53450;42.584;23.366;2023-02-28T12:46:49;9.85;78.14
66594;DHT22;53450;42.584;23.366;2023-02-28T12:49:20;9.77;77.75
66594;DHT22;53450;42.584;23.366;2023-02-28T12:51:47;9.58;78.53
66594;DHT22;53450;42.584;23.366;2023-02-28T12:54:44;9.44;78.78
66594;DHT22;53450;42.584;23.366;2023-02-28T12:57:25;9.48;79.04
66594;DHT22;53450;42.584;23.366;2023-02-28T13:00:02;9.15;80.00
66594;DHT22;53450;42.584;23.366;2023-02-28T13:03:12;8.83;80.40
66594;DHT22;53450;42.584;23.366;2023-02-28T13:06:13;8.65;81.34
66594;DHT22;53450;42.584;23.366;2023-02-28T13:08:59;8.78;81.16
66594;DHT22;53450;42.584;23.366;2023-02-28T13:14:35;8.99;80.55
66594;DHT22;53450;42.584;23.366;2023-02-28T13:19:40;9.10;80.05
66594;DHT22;53450;42.584;23.366;2023-02-28T13:24:55;8.98;79.41
66594;DHT22;53450;42.584;23.366;2023-02-28T13:27:47;9.10;79.61
66594;DHT22;53450;42.584;23.366;2023-02-28T13:38:45;8.86;79.52
66594;DHT22;53450;42.584;23.366;2023-02-28T13:49:28;8.82;79.48
66594;DHT22;53450;42.584;23.366;2023-02-28T14:05:32;8.67;80.65
66594;DHT22;53450;42.584;23.366;2023-02-28T14:08:21;8.71;80.61
66594;DHT22;53450;42.584;23.366;2023-02-28T14:11:03;8.62;79.90
66594;DHT22;53450;42.584;23.366;2023-02-28T14:13:43;8.65;79.88
66594;DHT22;53450;42.584;23.366;2023-02-28T14:16:13;8.68;79.94
66594;DHT22;53450;42.584;23.366;2023-02-28T14:19:03;8.75;79.65
66594;DHT22;53450;42.584;23.366;2023-02-28T14:21:35;8.72;79.27
66594;DHT22;53450;42.584;23.366;2023-02-28T14:27:38;8.73;78.76
66594;DHT22;53450;42.584;23.366;2023-02-28T14:32:51;8.69;78.77
66594;DHT22;53450;42.584;23.366;2023-02-28T14:37:52;8.62;79.19
66594;DHT22;53450;42.584;23.366;2023-02-28T14:40:27;8.52;79.00
66594;DHT22;53450;42.584;23.366;2023-02-28T14:42:57;8.52;79.15
66594;DHT22;53450;42.584;23.366;2023-02-28T14:45:23;8.52;79.30
66594;DHT22;53450;42.584;23.366;2023-02-28T14:47:50;8.68;79.18
66594;DHT22;53450;42.584;23.366;2023-02-28T14:50:29;8.73;78.82
66594;DHT22;53450;42.584;23.366;2023-02-28T14:52:57;8.67;79.26
66594;DHT22;53450;42.584;23.366;2023-02-28T14:55:26;8.86;79.01
66594;DHT22;53450;42.584;23.366;2023-02-28T14:58:26;8.88;78.19
66594;DHT22;53450;42.584;23.366;2023-02-28T15:01:01;8.78;78.26
66594;DHT22;53450;42.584;23.366;2023-02-28T15:03:37;8.72;78.56
66594;DHT22;53450;42.584;23.366;2023-02-28T15:06:13;8.67;78.80
66594;DHT22;53450;42.584;23.366;2023-02-28T15:08:39;8.72;78.03
66594;DHT22;53450;42.584;23.366;2023-02-28T15:11:08;8.51;78.31
66594;DHT22;53450;42.584;23.366;2023-02-28T15:13:44;8.54;78.01
66594;DHT22;53450;42.584;23.366;2023-02-28T15:18:52;8.58;78.10
66594;DHT22;53450;42.584;23.366;2023-02-28T15:21:29;8.72;78.06
66594;DHT22;53450;42.584;23.366;2023-02-28T15:24:06;8.59;78.09
66594;DHT22;53450;42.584;23.366;2023-02-28T15:26:39;8.68;78.08
66594;DHT22;53450;42.584;23.366;2023-02-28T15:29:14;8.57;78.01
66594;DHT22;53450;42.584;23.366;2023-02-28T15:31:47;8.61;78.29
66594;DHT22;53450;42.584;23.366;2023-02-28T15:36:59;8.55;78.24
66594;DHT22;53450;42.584;23.366;2023-02-28T15:39:26;8.57;78.59
66594;DHT22;53450;42.584;23.366;2023-02-28T15:42:09;8.62;78.62
66594;DHT22;53450;42.584;23.366;2023-02-28T15:45:01;8.44;79.02
66594;DHT22;53450;42.584;23.366;2023-02-28T15:47:29;8.14;80.64
66594;DHT22;53450;42.584;23.366;2023-02-28T15:49:58;7.93;81.97
66594;DHT22;53450;42.584;23.366;2023-02-28T15:52:29;7.56;83.19
66594;DHT22;53450;42.584;23.366;2023-02-28T15:54:58;7.45;83.46
66594;DHT22;53450;42.584;23.366;2023-02-28T15:57:27;7.49;83.49
66594;DHT22;53450;42.584;23.366;2023-02-28T15:59:56;7.35;84.11
66594;DHT22;53450;42.584;23.366;2023-02-28T16:07:34;7.25;84.42
66594;DHT22;53450;42.584;23.366;2023-02-28T16:10:00;7.11;84.84
66594;DHT22;53450;42.584;23.366;2023-02-28T16:12:29;7.11;84.97
66594;DHT22;53450;42.584;23.366;2023-02-28T16:14:57;7.03;85.09
66594;DHT22;53450;42.584;23.366;2023-02-28T16:17:26;7.07;85.34
66594;DHT22;53450;42.584;23.366;2023-02-28T16:19:53;6.99;85.22
66594;DHT22;53450;42.584;23.366;2023-02-28T16:22:19;6.96;85.46
66594;DHT22;53450;42.584;23.366;2023-02-28T16:24:45;6.93;85.49
66594;DHT22;53450;42.584;23.366;2023-02-28T16:27:26;6.91;85.65
66594;DHT22;53450;42.584;23.366;2023-02-28T16:29:55;6.87;85.73
66594;DHT22;53450;42.584;23.366;2023-02-28T16:32:20;6.77;85.96
66594;DHT22;53450;42.584;23.366;2023-02-28T16:34:55;6.73;86.05
66594;DHT22;53450;42.584;23.366;2023-02-28T16:37:21;6.69;86.17
66594;DHT22;53450;42.584;23.366;2023-02-28T16:39:46;6.68;86.17
66594;DHT22;53450;42.584;23.366;2023-02-28T16:42:17;6.69;86.24
66594;DHT22;53450;42.584;23.366;2023-02-28T16:44:45;6.72;86.21
66594;DHT22;53450;42.584;23.366;2023-02-28T16:47:11;6.57;86.14
66594;DHT22;53450;42.584;23.366;2023-02-28T16:49:37;6.50;86.59
66594;DHT22;53450;42.584;23.366;2023-02-28T16:52:02;6.48;86.74
66594;DHT22;53450;42.584;23.366;2023-02-28T16:54:28;6.46;86.86
66594;DHT22;53450;42.584;23.366;2023-02-28T16:56:54;6.54;86.65
66594;DHT22;53450;42.584;23.366;2023-02-28T16:59:23;6.43;86.67
66594;DHT22;53450;42.584;23.366;2023-02-28T17:01:50;6.41;86.62
66594;DHT22;53450;42.584;23.366;2023-02-28T17:04:16;6.36;86.62
66594;DHT22;53450;42.584;23.366;2023-02-28T17:06:41;6.45;86.51
66594;DHT22;53450;42.584;23.366;2023-02-28T17:09:19;6.43;86.41
66594;DHT22;53450;42.584;23.366;2023-02-28T17:11:45;6.36;86.45
66594;DHT22;53450;42.584;23.366;2023-02-28T17:14:12;6.31;86.57
66594;DHT22;53450;42.584;23.366;2023-02-28T17:16:39;6.17;86.39
66594;DHT22;53450;42.584;23.366;2023-02-28T17:19:15;6.25;86.65
66594;DHT22;53450;42.584;23.366;2023-02-28T17:21:41;6.22;86.49
66594;DHT22;53450;42.584;23.366;2023-02-28T17:24:10;6.14;86.59
66594;DHT22;53450;42.584;23.366;2023-02-28T17:26:39;6.12;86.70
66594;DHT22;53450;42.584;23.366;2023-02-28T17:29:17;6.10;86.69
66594;DHT22;53450;42.584;23.366;2023-02-28T17:31:43;6.04;86.66
66594;DHT22;53450;42.584;23.366;2023-02-28T17:34:09;6.07;86.57
66594;DHT22;53450;42.584;23.366;2023-02-28T17:36:35;5.98;86.61
66594;DHT22;53450;42.584;23.366;2023-02-28T17:39:03;6.10;86.49
66594;DHT22;53450;42.584;23.366;2023-02-28T17:41:29;6.11;86.30
66594;DHT22;53450;42.584;23.366;2023-02-28T17:43:58;5.97;85.72
66594;DHT22;53450;42.584;23.366;2023-02-28T17:46:24;6.02;85.14
66594;DHT22;53450;42.584;23.366;2023-02-28T17:48:52;6.04;84.74
66594;DHT22;53450;42.584;23.366;2023-02-28T17:51:20;5.97;84.90
66594;DHT22;53450;42.584;23.366;2023-02-28T17:53:46;6.02;84.68
66594;DHT22;53450;42.584;23.366;2023-02-28T17:56:31;5.93;84.68
66594;DHT22;53450;42.584;23.366;2023-02-28T17:58:57;6.00;84.70
66594;DHT22;53450;42.584;23.366;2023-02-28T18:01:24;5.95;84.87
66594;DHT22;53450;42.584;23.366;2023-02-28T18:03:52;5.93;85.11
66594;DHT22;53450;42.584;23.366;2023-02-28T18:06:44;5.91;85.04
66594;DHT22;53450;42.584;23.366;2023-02-28T18:09:14;5.95;85.06
66594;DHT22;53450;42.584;23.366;2023-02-28T18:11:40;5.87;85.33
66594;DHT22;53450;42.584;23.366;2023-02-28T18:14:14;5.84;85.45
66594;DHT22;53450;42.584;23.366;2023-02-28T18:16:43;5.93;85.29
66594;DHT22;53450;42.584;23.366;2023-02-28T18:19:09;5.87;85.32
66594;DHT22;53450;42.584;23.366;2023-02-28T18:21:50;5.78;85.55
66594;DHT22;53450;42.584;23.366;2023-02-28T18:24:18;5.71;85.66
66594;DHT22;53450;42.584;23.366;2023-02-28T18:26:45;5.77;85.76